WEATHER DATA

YESTERDAY
Time Temp. Dewp. Hum. Bar.
00:05 -14.4 -15.9 87 997.2
00:15 -14.5 -16 87 997.4
00:25 -14.8 -16.3 87 997.3
00:35 -14.8 -16.3 87 997.4
00:45 -14.9 -16.4 87 997.6
00:56 -15.1 -16.6 87 997.7
01:15 -15.3 -16.8 87 997.9
01:25 -15.4 -16.9 87 997.9
01:36 -15.5 -17 87 998.2
01:45 -15.6 -17.1 87 998.3
01:55 -15.6 -17.1 87 998.3
02:06 -15.6 -17.1 87 998.4
02:16 -15.7 -17.1 88 998.3
02:26 -15.6 -17 88 998.4
02:35 -15.6 -17.1 87 998.5
02:46 -15.7 -17.2 87 998.7
02:56 -15.7 -17.2 87 998.6
03:06 -15.7 -17.2 87 998.6
03:17 -15.6 -17.1 87 998.5
03:26 -15.7 -17.2 87 998.5
03:36 -15.6 -17.1 87 998.4
03:46 -15.6 -17.1 87 998.4
03:57 -15.6 -17.1 87 998.5
04:06 -15.6 -17.1 87 998.7
04:16 -15.6 -17.1 87 999.1
04:27 -15.6 -17.1 87 999.1
04:37 -15.6 -17.1 87 999.1
04:47 -15.6 -17.1 87 999.1
04:57 -15.6 -17.1 87 998.9
05:07 -15.6 -17.1 87 999
05:16 -15.6 -17.1 87 999.1
05:27 -15.6 -17.1 87 999.2
05:37 -15.6 -17.1 87 999.3
05:47 -15.7 -17.2 87 999.4
05:56 -15.7 -17.2 87 999.4
06:07 -15.7 -17.2 87 999.3
06:18 -15.7 -17.2 87 999.3
06:26 -15.7 -17.2 87 999.5
06:37 -15.7 -17.2 87 999.5
06:48 -15.7 -17.2 87 999.4
06:58 -15.8 -17.3 87 999.3
07:08 -15.8 -17.3 87 999.3
07:17 -15.8 -17.3 87 999.3
07:28 -15.8 -17.3 87 999.5
07:38 -15.8 -17.3 87 999.5
07:48 -15.8 -17.3 87 999.5
07:57 -15.8 -17.3 87 999.7
08:05 -15.8 -17.3 87 999.8
08:18 -15.8 -17.3 87 999.9
08:28 -15.8 -17.3 87 1000
08:39 -15.7 -17.2 87 1000.1
08:48 -15.7 -17.2 87 1000.2
08:58 -15.7 -17.2 87 1000.3
09:09 -15.7 -17.2 87 1000.4
09:19 -15.7 -17.2 87 1000.4
09:29 -15.6 -17.1 87 1000.2
09:38 -15.6 -17.1 87 1000.2
09:49 -15.5 -17 87 1000.2
09:59 -15.5 -17 87 1000.4
10:09 -15.5 -17 87 1000.5
10:19 -15.4 -16.9 87 1000.5
10:29 -15.3 -16.8 87 1000.6
10:39 -15.2 -16.7 87 1000.7
10:49 -15.2 -16.7 87 1000.7
10:50 -15.2 -16.7 87 1000.7
11:10 -15.1 -16.6 87 1000.8
11:20 -15 -16.5 87 1000.9
11:29 -15 -16.5 87 1001
11:40 -14.9 -16.4 87 1001
11:50 -14.8 -16.3 87 1000.9
12:00 -14.8 -16.3 87 1001
12:09 -14.8 -16.3 87 1001
12:20 -14.8 -16.3 87 1001.1
12:30 -14.8 -16.3 87 1001
12:40 -14.8 -16.3 87 1000.9
12:50 -14.8 -16.3 87 1000.8
13:00 -14.8 -16.3 87 1001
13:10 -14.8 -16.3 87 1001.1
13:20 -14.8 -16.3 87 1001.1
13:31 -14.8 -16.3 87 1001.1
13:41 -14.8 -16.3 87 1001.2
13:50 -14.8 -16.3 87 1001.2
14:00 -14.8 -16.3 87 1001.3
14:11 -14.8 -16.3 87 1001.5
14:21 -14.8 -16.3 87 1001.5
14:30 -14.8 -16.3 87 1001.5
14:41 -14.8 -16.3 87 1001.5
14:51 -14.8 -16.3 87 1001.5
15:01 -14.8 -16.3 87 1001.7
15:11 -14.8 -16.3 87 1001.8
15:21 -14.8 -16.3 87 1002
15:31 -14.9 -16.4 87 1002
15:41 -14.8 -16.3 87 1002.1
15:52 -14.9 -16.4 87 1002.1
16:02 -14.9 -16.4 87 1002.3
16:11 -14.9 -16.4 87 1002.3
16:21 -14.9 -16.4 87 1002.4
16:32 -14.9 -16.4 87 1002.4
16:42 -14.9 -16.4 87 1002.4
16:51 -15 -16.5 87 1002.3
17:02 -15 -16.5 87 1002.2
17:12 -15 -16.5 87 1002.2
17:22 -15.1 -16.6 87 1002.3
17:32 -15.1 -16.6 87 1002.4
17:42 -15.1 -16.6 87 1002.4
17:52 -15.1 -16.6 87 1002.5
18:02 -15.1 -16.6 87 1002.4
18:13 -15.1 -16.6 87 1002.4
18:23 -15.1 -16.5 88 1002.4
18:32 -15.1 -16.5 88 1002.5
18:42 -15.2 -16.6 88 1002.6
18:53 -15.1 -16.5 88 1002.7
19:03 -15.1 -16.5 88 1002.7
19:12 -15.1 -16.5 88 1002.7
19:23 -15.1 -16.5 88 1002.6
19:33 -15.1 -16.5 88 1002.7
19:43 -15.1 -16.5 88 1002.9
19:53 -15.1 -16.5 88 1002.9
20:03 -15.1 -16.5 88 1002.9
20:13 -15.1 -16.5 88 1002.9
20:23 -15.1 -16.5 88 1002.9
20:34 -15.1 -16.5 88 1002.9
20:44 -15.2 -16.6 88 1002.8
20:53 -15.3 -16.8 87 1003
21:03 -15.5 -17 87 1003
21:14 -15.6 -17.1 87 1003.1
21:24 -15.6 -17.1 87 1003
21:34 -15.7 -17.1 88 1003.1
21:44 -15.6 -17 88 1003.1
21:54 -15.6 -17 88 1003.2
22:04 -15.6 -17 88 1003.2
22:14 -15.6 -17 88 1003.3
22:24 -15.6 -17 88 1003.3
22:34 -15.5 -16.9 88 1003.3
22:44 -15.5 -16.9 88 1003.3
22:55 -15.5 -16.9 88 1003.3
23:05 -15.6 -17 88 1003.3
23:14 -15.7 -17.2 87 1003.4
23:24 -15.9 -17.4 87 1003.3
23:35 -16.1 -17.6 87 1003.4
23:45 -16.2 -17.7 87 1003.3
23:55 -16.3 -17.8 87 1003.5

DAY STATISTIC

2021-01-24
TEMPERATURE
AVERAGE
-15.3
HIGH
-14.4
00:05
LOW
-16.3
23:55
PRESSURE
AVERAGE
1000.8
HIGH
1003.5
23:55
LOW
997.2
00:05
DEWPOINT
AVERAGE
-16.8
HIGH
-15.9
00:05
LOW
-17.8
23:55
HUMIDITY
AVERAGE
87
HIGH
88
02:16
LOW
87
00:05
TEMPERATURE (°C)
LOW
-16.3
HIGH
-14.4
AVERAGE
-15.3
PRESSURE (hpa)
LOW
997.2
HIGH
1003.5
AVERAGE
1000.8
DEVICE